Airfield :
LOGIN :

Register | Disclaimer

   EN    FR    IT 

 










Legend :    VFR   Marginal VFR   IFR   Intensive IFR   Very Intensive IFR
Visi :
Ceiling :
>= 8 km
>= 3000ft
5 to 8 km
1000 to 3000 ft
1500m to 5 km
500 to 1000 ft
800 to 1500m
200 to 500 ft
< 800m
< 200 ft
Symbols :   Thunderstorms  Fog  Heavy snow  Heavy precipitations  Wind > 20 kt
SIGMETs :     Misc.  Thunderstorms  Icing  Turbulence  Mountain Waves  Volcanic Ashes






- Airport Elevation : -11 ft
- IATA code : AMS


EHAM - Amsterdam Schiphol

CURRENT METAR :
  • 301555Z 23019KT 200V260 8000 FEW010 SCT012 OVC019 15/13 Q1018 TEMPO 6000 -DZ

EXPIRED METARs :
  • 301525Z 23018KT 6000 -DZ FEW010 SCT012 OVC016 15/13 Q1017 TEMPO 8000
  • 301455Z 23017KT 7000 -DZ FEW008 SCT012 BKN019 15/13 Q1017 TEMPO 8000
  • 301425Z 23018KT 4400 -DZ FEW010 SCT012 BKN019 15/13 Q1017 TEMPO 6000
  • 301355Z 23020KT 6000 -DZ FEW010 SCT014 BKN019 15/13 Q1017 TEMPO 8000
  • 301325Z 24023G33KT 9999 FEW010 BKN015 15/13 Q1017 TEMPO -DZ BKN010

TAF TAF EHAM
Valid from the 30 at 12:00 until the 31 at 18:00 UTC


301055Z 3012/3118 24018G28KT 9999 BKN018
TEMPO 3012/3022 4000 -DZ SCT008 BKN012
BECMG 3015/3018 23015KT
BECMG 3022/3101 21010KT BKN030
BECMG 3109/3112 18016G26KT
BECMG 3116/3118 7000 -RA BKN020



MET'MAP, your aeronautical weather chart ! - Copyright ORBIFLY December 2007 - Disclaimer

ORBIFLY MET'MAP TEAM :

Programming & Development : Alexandra Zaïnal
Concept & original design : Baudouin d'Aumeries
Assistance for programming : Marc-Olivier Méhu
Technical & hardware support : Manuel Goepfert

Contact : metmap@orbifly.com




SOURCES & CREDITS :

   NOAA